createdAt,value
2022-08-12T00:00:42.405Z,20.08
2022-08-12T00:03:28.260Z,20.06
2022-08-12T00:06:16.296Z,20.05
2022-08-12T00:09:02.232Z,20.08
2022-08-12T00:11:49.876Z,20.02
2022-08-12T00:14:37.721Z,20.10
2022-08-12T00:17:24.313Z,19.99
2022-08-12T00:20:10.837Z,19.97
2022-08-12T00:23:00.294Z,19.97
2022-08-12T00:26:22.607Z,19.86
2022-08-12T00:29:05.173Z,19.90
2022-08-12T00:31:51.021Z,19.87
2022-08-12T00:34:37.389Z,19.78
2022-08-12T00:37:24.500Z,19.81
2022-08-12T00:40:12.024Z,19.67
2022-08-12T00:42:42.281Z,19.70
2022-08-12T00:45:14.139Z,19.70
2022-08-12T00:47:44.726Z,19.65
2022-08-12T00:50:19.001Z,19.53
2022-08-12T00:52:49.009Z,19.63
2022-08-12T00:55:19.303Z,19.57
2022-08-12T00:57:52.084Z,19.63
2022-08-12T01:00:24.632Z,19.68
2022-08-12T01:02:58.596Z,19.78
2022-08-12T01:05:45.311Z,19.70
2022-08-12T01:08:46.393Z,19.59
2022-08-12T01:11:33.414Z,19.55
2022-08-12T01:14:05.400Z,19.34
2022-08-12T01:16:35.860Z,19.17
2022-08-12T01:19:04.744Z,19.15
2022-08-12T01:21:58.464Z,19.21
2022-08-12T01:24:50.482Z,19.18
2022-08-12T01:27:24.497Z,19.26
2022-08-12T01:29:57.110Z,19.18
2022-08-12T01:32:29.684Z,19.20
2022-08-12T01:35:05.901Z,19.11
2022-08-12T01:37:38.561Z,19.02
2022-08-12T01:40:34.441Z,19.04
2022-08-12T01:43:08.656Z,19.03
2022-08-12T01:45:43.857Z,19.13
2022-08-12T01:48:20.928Z,19.12
2022-08-12T01:51:06.531Z,19.10
2022-08-12T01:53:50.566Z,19.13
2022-08-12T01:56:23.632Z,19.09
2022-08-12T01:59:13.873Z,18.90
2022-08-12T02:01:45.839Z,18.89
2022-08-12T02:04:41.362Z,18.91
2022-08-12T02:07:38.056Z,18.90
2022-08-12T02:10:50.996Z,18.86
2022-08-12T02:14:00.385Z,18.89
2022-08-12T02:16:46.094Z,18.81
2022-08-12T02:19:28.933Z,18.82
2022-08-12T02:22:18.683Z,18.79
2022-08-12T02:24:48.784Z,18.82
2022-08-12T02:27:20.667Z,18.76
2022-08-12T02:29:52.690Z,18.73
2022-08-12T02:32:22.720Z,18.76
2022-08-12T02:34:52.422Z,18.82
2022-08-12T02:37:24.083Z,18.76
2022-08-12T02:39:55.546Z,18.76
2022-08-12T02:42:25.284Z,18.62
2022-08-12T02:44:57.328Z,18.56
2022-08-12T02:47:58.399Z,18.56
2022-08-12T02:50:26.081Z,18.62
2022-08-12T02:52:56.685Z,18.59
2022-08-12T02:55:34.940Z,18.52
2022-08-12T02:58:12.608Z,18.58
2022-08-12T03:00:45.984Z,18.66
2022-08-12T03:03:16.549Z,18.63
2022-08-12T03:05:52.583Z,18.56
2022-08-12T03:08:32.121Z,18.43
2022-08-12T03:11:11.807Z,18.34
2022-08-12T03:13:47.253Z,18.34
2022-08-12T03:16:18.214Z,18.37
2022-08-12T03:18:47.177Z,18.27
2022-08-12T03:22:03.841Z,18.18
2022-08-12T03:24:09.709Z,18.15
2022-08-12T03:26:39.096Z,18.18
2022-08-12T03:29:08.297Z,18.15
2022-08-12T03:31:38.076Z,18.13
2022-08-12T03:34:09.043Z,18.13
2022-08-12T03:36:40.152Z,18.18
2022-08-12T03:39:35.338Z,18.09
2022-08-12T03:42:17.234Z,18.14
2022-08-12T03:45:14.706Z,18.09
2022-08-12T03:48:13.421Z,18.03
2022-08-12T03:51:05.582Z,18.06
2022-08-12T03:53:51.819Z,18.03
2022-08-12T03:56:38.253Z,18.01
2022-08-12T03:59:26.036Z,18.01
2022-08-12T04:01:57.948Z,18.08
2022-08-12T04:04:35.235Z,18.02
2022-08-12T04:07:08.275Z,17.99
2022-08-12T04:09:39.431Z,17.85
2022-08-12T04:12:26.957Z,17.77
2022-08-12T04:15:03.194Z,17.69
2022-08-12T04:17:33.156Z,17.70
2022-08-12T04:20:03.549Z,17.69
2022-08-12T04:22:34.646Z,17.71
2022-08-12T04:25:04.548Z,17.70
2022-08-12T04:27:36.555Z,17.76
2022-08-12T04:30:31.172Z,17.75
2022-08-12T04:32:56.716Z,17.76
2022-08-12T04:35:27.584Z,17.86
2022-08-12T04:38:00.613Z,17.91
2022-08-12T04:40:32.710Z,17.88
2022-08-12T04:43:02.827Z,17.78
2022-08-12T04:45:33.145Z,17.68
2022-08-12T04:48:02.820Z,17.54
2022-08-12T04:50:37.165Z,17.38
2022-08-12T04:53:08.284Z,17.41
2022-08-12T04:55:39.767Z,17.41
2022-08-12T04:58:09.369Z,17.40
2022-08-12T05:00:38.649Z,17.41
2022-08-12T05:03:07.555Z,17.49
2022-08-12T05:05:39.319Z,17.48
2022-08-12T05:08:12.975Z,17.43
2022-08-12T05:10:41.808Z,17.36
2022-08-12T05:13:14.668Z,17.28
2022-08-12T05:16:03.990Z,17.34
2022-08-12T05:18:33.999Z,17.31
2022-08-12T05:21:10.335Z,17.20
2022-08-12T05:23:39.896Z,17.11
2022-08-12T05:26:08.948Z,17.13
2022-08-12T05:28:37.693Z,17.16
2022-08-12T05:31:06.908Z,17.24
2022-08-12T05:33:38.046Z,17.33
2022-08-12T05:36:10.663Z,17.36
2022-08-12T05:38:56.396Z,17.43
2022-08-12T05:41:25.878Z,17.43
2022-08-12T05:43:57.052Z,17.30
2022-08-12T05:46:27.233Z,17.29
2022-08-12T05:48:56.615Z,17.26
2022-08-12T05:51:39.571Z,17.32
2022-08-12T05:54:10.729Z,17.33
2022-08-12T05:56:40.351Z,17.40
2022-08-12T05:59:11.341Z,17.52
2022-08-12T06:02:10.391Z,17.63
2022-08-12T06:04:30.340Z,17.71
2022-08-12T06:07:02.056Z,17.76
2022-08-12T06:09:50.495Z,17.83
2022-08-12T06:12:23.766Z,17.90
2022-08-12T06:14:55.290Z,17.91
2022-08-12T06:17:24.023Z,17.96
2022-08-12T06:20:26.209Z,18.01
2022-08-12T06:22:43.799Z,18.10
2022-08-12T06:25:18.462Z,18.13
2022-08-12T06:28:05.925Z,18.16
2022-08-12T06:30:39.572Z,18.07
2022-08-12T06:33:59.593Z,18.08
2022-08-12T06:35:59.281Z,18.14
2022-08-12T06:38:32.760Z,18.06
2022-08-12T06:41:19.922Z,18.11
2022-08-12T06:44:05.959Z,18.21
2022-08-12T06:46:38.999Z,18.38
2022-08-12T06:49:09.017Z,18.48
2022-08-12T06:51:37.478Z,18.57
2022-08-12T06:54:07.756Z,18.48
2022-08-12T06:59:25.469Z,18.49
2022-08-12T07:01:55.142Z,18.64
2022-08-12T07:04:36.206Z,18.73
2022-08-12T07:07:07.447Z,18.81
2022-08-12T07:10:05.054Z,18.93
2022-08-12T07:12:28.496Z,18.94
2022-08-12T07:14:59.093Z,19.05
2022-08-12T07:17:31.830Z,19.08
2022-08-12T07:20:04.200Z,19.17
2022-08-12T07:22:33.578Z,19.15
2022-08-12T07:25:20.535Z,19.20
2022-08-12T07:27:50.102Z,19.30
2022-08-12T07:30:18.385Z,19.32
2022-08-12T07:32:51.784Z,19.38
2022-08-12T07:35:20.910Z,19.42
2022-08-12T07:37:50.686Z,19.51
2022-08-12T07:40:22.208Z,19.55
2022-08-12T07:42:50.748Z,19.59
2022-08-12T07:45:20.540Z,19.74
2022-08-12T07:47:51.680Z,19.83
2022-08-12T07:50:23.802Z,19.89
2022-08-12T07:52:52.713Z,19.90
2022-08-12T07:55:22.723Z,19.97
2022-08-12T07:57:58.097Z,20.00
2022-08-12T08:00:29.261Z,20.13
2022-08-12T08:02:58.848Z,20.21
2022-08-12T08:05:34.497Z,20.22
2022-08-12T08:08:05.057Z,20.22
2022-08-12T08:10:34.854Z,20.23
2022-08-12T08:13:05.334Z,20.20
2022-08-12T08:16:02.032Z,20.24
2022-08-12T08:18:27.494Z,20.40
2022-08-12T08:20:58.582Z,20.49
2022-08-12T08:23:56.265Z,20.50
2022-08-12T08:26:27.770Z,20.61
2022-08-12T08:28:57.209Z,20.67
2022-08-12T08:31:25.665Z,20.68
2022-08-12T08:34:05.127Z,20.80
2022-08-12T08:36:45.401Z,20.75
2022-08-12T08:39:17.331Z,20.83
2022-08-12T08:42:17.226Z,20.94
2022-08-12T08:44:46.956Z,21.07
2022-08-12T08:47:18.614Z,21.16
2022-08-12T08:49:47.027Z,21.27
2022-08-12T08:52:38.903Z,21.35
2022-08-12T08:55:03.817Z,21.34
2022-08-12T08:57:43.049Z,21.47
2022-08-12T09:00:15.447Z,21.57
2022-08-12T09:02:49.232Z,21.59
2022-08-12T09:05:43.006Z,21.58
2022-08-12T09:08:26.575Z,21.66
2022-08-12T09:11:00.251Z,21.74
2022-08-12T09:14:09.905Z,21.92
2022-08-12T09:16:20.489Z,22.06
2022-08-12T09:18:52.409Z,22.09
2022-08-12T09:21:23.812Z,22.18
2022-08-12T09:24:06.007Z,22.42
2022-08-12T09:30:11.805Z,22.45
2022-08-12T09:32:55.653Z,22.66
2022-08-12T09:35:04.294Z,22.62
2022-08-12T09:37:57.854Z,22.79
2022-08-12T09:41:01.710Z,22.76
2022-08-12T09:43:35.071Z,22.93
2022-08-12T09:46:21.834Z,22.94
2022-08-12T09:48:56.647Z,23.06
2022-08-12T09:51:37.219Z,23.20
2022-08-12T09:54:31.640Z,23.34
2022-08-12T09:57:00.685Z,23.34
2022-08-12T10:00:16.137Z,23.58
2022-08-12T10:02:44.706Z,23.45
2022-08-12T10:05:18.022Z,23.53
2022-08-12T10:07:49.337Z,23.62
2022-08-12T10:10:24.549Z,23.50
2022-08-12T10:13:34.727Z,23.83
2022-08-12T10:16:05.921Z,23.89
2022-08-12T10:18:51.872Z,23.94
2022-08-12T10:21:23.719Z,23.89
2022-08-12T10:23:56.095Z,23.94
2022-08-12T10:26:44.855Z,24.11
2022-08-12T10:30:37.236Z,24.27
2022-08-12T10:32:45.277Z,24.22
2022-08-12T10:35:16.158Z,24.14
2022-08-12T10:38:34.892Z,24.05
2022-08-12T10:40:55.638Z,24.09
2022-08-12T10:43:56.033Z,23.90
2022-08-12T10:46:31.257Z,23.90
2022-08-12T10:49:06.464Z,24.17
2022-08-12T10:52:33.094Z,24.36
2022-08-12T10:54:42.996Z,24.19
2022-08-12T10:57:18.461Z,24.34
2022-08-12T11:00:30.429Z,24.50
2022-08-12T11:04:35.952Z,24.74
2022-08-12T11:07:02.376Z,24.63
2022-08-12T11:08:42.274Z,24.87
2022-08-12T11:12:08.455Z,24.76
2022-08-12T11:14:13.144Z,24.96
2022-08-12T11:17:34.966Z,25.09
2022-08-12T11:19:47.123Z,25.16
2022-08-12T11:22:18.027Z,25.31
2022-08-12T11:24:51.303Z,25.27
2022-08-12T11:27:20.427Z,25.75
2022-08-12T11:30:01.959Z,25.65
2022-08-12T11:32:39.227Z,25.96
2022-08-12T11:35:09.065Z,26.27
2022-08-12T11:37:58.312Z,25.83
2022-08-12T11:40:30.136Z,26.36
2022-08-12T11:43:19.019Z,26.63
2022-08-12T11:45:53.407Z,26.92
2022-08-12T11:48:27.189Z,26.57
2022-08-12T11:50:57.344Z,26.51
2022-08-12T11:53:59.497Z,26.10
2022-08-12T11:56:16.255Z,26.27
2022-08-12T12:02:01.678Z,26.73
2022-08-12T12:04:29.491Z,26.86
2022-08-12T12:07:07.524Z,26.64
2022-08-12T12:09:52.471Z,26.65
2022-08-12T12:12:25.266Z,26.44
2022-08-12T12:14:54.533Z,26.65
2022-08-12T12:17:25.367Z,26.66
2022-08-12T12:19:55.118Z,27.01
2022-08-12T12:22:27.109Z,26.34
2022-08-12T12:24:59.459Z,26.27
2022-08-12T12:28:04.871Z,26.53
2022-08-12T12:30:34.785Z,26.57
2022-08-12T12:33:03.692Z,26.52
2022-08-12T12:36:18.183Z,26.57
2022-08-12T12:38:25.330Z,26.88
2022-08-12T12:40:54.178Z,27.38
2022-08-12T12:43:29.148Z,27.32
2022-08-12T12:46:11.232Z,26.96
2022-08-12T12:48:44.092Z,27.07
2022-08-12T12:51:49.276Z,27.18
2022-08-12T12:54:10.776Z,27.04
2022-08-12T12:56:43.150Z,26.76
2022-08-12T12:59:54.936Z,26.91
2022-08-12T13:02:08.638Z,26.82
2022-08-12T13:04:38.286Z,27.22
2022-08-12T13:07:07.082Z,27.45
2022-08-12T13:09:36.875Z,27.12
2022-08-12T13:12:10.462Z,27.11
2022-08-12T13:14:40.869Z,26.98
2022-08-12T13:17:14.824Z,27.38
2022-08-12T13:19:48.361Z,27.25
2022-08-12T13:22:20.757Z,28.00
2022-08-12T13:24:54.630Z,27.75
2022-08-12T13:27:35.516Z,27.15
2022-08-12T13:30:13.452Z,27.51
2022-08-12T13:32:56.512Z,27.29
2022-08-12T13:35:33.169Z,27.64
2022-08-12T13:38:02.458Z,27.75
2022-08-12T13:40:33.853Z,28.02
2022-08-12T13:43:06.548Z,27.53
2022-08-12T13:45:36.983Z,27.98
2022-08-12T13:48:07.489Z,28.39
2022-08-12T13:50:37.769Z,27.95
2022-08-12T13:53:23.803Z,28.08
2022-08-12T13:56:01.502Z,28.49
2022-08-12T13:58:32.985Z,28.49
2022-08-12T14:01:08.928Z,28.73
2022-08-12T14:03:50.476Z,28.42
2022-08-12T14:06:20.805Z,28.76
2022-08-12T14:08:50.635Z,28.93
2022-08-12T14:11:25.223Z,29.27
2022-08-12T14:14:03.082Z,29.84
2022-08-12T14:16:48.307Z,29.49
2022-08-12T14:19:22.720Z,29.46
2022-08-12T14:21:59.565Z,29.51
2022-08-12T14:24:35.886Z,29.42
2022-08-12T14:27:09.018Z,29.67
2022-08-12T14:30:04.272Z,30.35
2022-08-12T14:32:35.918Z,30.95
2022-08-12T14:35:09.442Z,31.13
2022-08-12T14:37:57.662Z,31.07
2022-08-12T14:40:29.399Z,31.03
2022-08-12T14:42:59.380Z,31.19
2022-08-12T14:45:44.448Z,31.98
2022-08-12T14:48:24.019Z,31.64
2022-08-12T14:51:30.392Z,31.93
2022-08-12T14:56:08.925Z,31.62
2022-08-12T14:56:59.406Z,31.91
2022-08-12T14:59:56.464Z,32.35
2022-08-12T15:02:26.214Z,31.62
2022-08-12T15:04:59.524Z,31.74
2022-08-12T15:07:34.433Z,31.48
2022-08-12T15:10:31.843Z,31.58
2022-08-12T15:13:06.967Z,31.88
2022-08-12T15:15:44.234Z,32.45
2022-08-12T15:18:21.117Z,31.72
2022-08-12T15:20:54.587Z,32.51
2022-08-12T15:23:24.527Z,32.57
2022-08-12T15:26:03.595Z,31.97
2022-08-12T15:28:35.161Z,32.55
2022-08-12T15:31:21.643Z,33.05
2022-08-12T15:33:57.333Z,33.78
2022-08-12T15:36:55.110Z,32.78
2022-08-12T15:39:17.638Z,33.16
2022-08-12T15:41:50.219Z,32.78
2022-08-12T15:44:38.061Z,32.35
2022-08-12T15:47:11.751Z,32.89
2022-08-12T15:49:54.778Z,32.58
2022-08-12T15:52:31.839Z,32.22
2022-08-12T15:55:04.937Z,33.90
2022-08-12T15:57:35.164Z,34.10
2022-08-12T16:00:07.240Z,34.23
2022-08-12T16:02:52.570Z,34.35
2022-08-12T16:06:11.213Z,34.35
2022-08-12T16:08:21.173Z,33.73
2022-08-12T16:10:53.884Z,33.90
2022-08-12T16:13:32.813Z,34.33
2022-08-12T16:16:22.490Z,33.61
2022-08-12T16:19:01.941Z,33.47
2022-08-12T16:21:52.844Z,32.74
2022-08-12T16:24:23.835Z,33.58
2022-08-12T16:26:54.469Z,33.51
2022-08-12T16:29:38.695Z,33.78
2022-08-12T16:32:24.052Z,34.25
2022-08-12T16:34:59.846Z,33.99
2022-08-12T16:38:25.134Z,35.03
2022-08-12T16:40:25.102Z,34.87
2022-08-12T16:43:01.987Z,35.06
2022-08-12T16:46:05.194Z,34.93
2022-08-12T16:48:36.005Z,34.99
2022-08-12T16:51:26.889Z,35.69
2022-08-12T16:53:56.765Z,34.11
2022-08-12T16:56:28.899Z,33.32
2022-08-12T16:58:59.752Z,33.74
2022-08-12T17:01:37.816Z,34.84
2022-08-12T17:04:11.460Z,34.28
2022-08-12T17:06:44.143Z,34.62
2022-08-12T17:09:17.859Z,34.52
2022-08-12T17:11:50.411Z,34.84
2022-08-12T17:14:22.890Z,35.26
2022-08-12T17:16:52.896Z,35.37
2022-08-12T17:20:28.960Z,35.17
2022-08-12T17:22:12.659Z,35.62
2022-08-12T17:24:54.552Z,35.62
2022-08-12T17:27:30.767Z,34.32
2022-08-12T17:30:04.475Z,34.77
2022-08-12T17:32:36.844Z,34.06
2022-08-12T17:35:30.022Z,34.62
2022-08-12T17:38:07.525Z,35.29
2022-08-12T17:40:40.637Z,33.77
2022-08-12T17:43:56.865Z,33.41
2022-08-12T17:46:03.024Z,33.35
2022-08-12T17:48:34.740Z,32.76
2022-08-12T17:51:15.321Z,32.34
2022-08-12T17:54:11.318Z,32.13
2022-08-12T17:56:37.537Z,32.08
2022-08-12T17:59:12.558Z,32.10
2022-08-12T18:01:45.161Z,31.93
2022-08-12T18:04:21.283Z,31.75
2022-08-12T18:06:51.809Z,31.79
2022-08-12T18:09:24.602Z,31.73
2022-08-12T18:12:12.369Z,32.67
2022-08-12T18:14:47.728Z,30.74
2022-08-12T18:17:18.151Z,28.95
2022-08-12T18:20:05.114Z,28.21
2022-08-12T18:22:38.565Z,27.67
2022-08-12T18:25:17.297Z,26.79
2022-08-12T18:28:16.268Z,26.43
2022-08-12T18:30:53.351Z,26.25
2022-08-12T18:33:25.995Z,26.02
2022-08-12T18:35:58.200Z,26.08
2022-08-12T18:38:28.161Z,25.93
2022-08-12T18:41:21.743Z,25.93
2022-08-12T18:44:01.267Z,25.81
2022-08-12T18:46:54.355Z,25.48
2022-08-12T18:49:30.666Z,25.37
2022-08-12T18:52:05.433Z,25.20
2022-08-12T18:54:41.465Z,25.35
2022-08-12T18:58:07.099Z,24.91
2022-08-12T19:00:16.310Z,25.00
2022-08-12T19:02:47.179Z,25.15
2022-08-12T19:05:18.944Z,24.95
2022-08-12T19:08:00.875Z,24.85
2022-08-12T19:10:32.960Z,24.68
2022-08-12T19:13:23.990Z,24.71
2022-08-12T19:15:54.983Z,24.31
2022-08-12T19:18:30.862Z,24.33
2022-08-12T19:21:11.652Z,24.31
2022-08-12T19:23:44.729Z,24.20
2022-08-12T19:26:13.263Z,23.99
2022-08-12T19:28:42.638Z,23.92
2022-08-12T19:31:55.289Z,23.66
2022-08-12T19:35:53.862Z,23.66
2022-08-12T19:37:26.849Z,23.63
2022-08-12T19:40:10.092Z,23.53
2022-08-12T19:42:57.763Z,23.48
2022-08-12T19:45:41.945Z,23.56
2022-08-12T19:48:16.778Z,23.54
2022-08-12T19:50:52.773Z,23.45
2022-08-12T19:53:24.680Z,23.45
2022-08-12T19:55:55.160Z,23.37
2022-08-12T19:58:25.354Z,23.46
2022-08-12T20:00:56.285Z,23.24
2022-08-12T20:03:39.349Z,23.22
2022-08-12T20:06:15.919Z,22.99
2022-08-12T20:08:55.851Z,22.89
2022-08-12T20:12:11.933Z,22.99
2022-08-12T20:14:19.620Z,22.81
2022-08-12T20:17:02.084Z,22.89
2022-08-12T20:20:16.423Z,22.92
2022-08-12T20:22:29.688Z,22.94
2022-08-12T20:25:01.354Z,22.86
2022-08-12T20:28:03.537Z,22.85
2022-08-12T20:30:37.406Z,22.77
2022-08-12T20:33:18.368Z,22.83
2022-08-12T20:36:14.071Z,22.87
2022-08-12T20:38:46.640Z,22.83
2022-08-12T20:41:17.500Z,22.88
2022-08-12T20:43:51.858Z,22.81
2022-08-12T20:46:25.169Z,22.82
2022-08-12T20:48:58.248Z,22.87
2022-08-12T20:51:54.592Z,22.84
2022-08-12T20:54:20.401Z,22.82
2022-08-12T20:56:48.829Z,22.73
2022-08-12T20:59:21.553Z,22.69
2022-08-12T21:01:54.046Z,22.74
2022-08-12T21:04:46.429Z,22.75
2022-08-12T21:07:24.021Z,22.70
2022-08-12T21:09:55.435Z,22.37
2022-08-12T21:12:31.144Z,22.27
2022-08-12T21:15:23.037Z,22.38
2022-08-12T21:18:15.457Z,22.52
2022-08-12T21:20:58.032Z,22.54
2022-08-12T21:23:30.871Z,22.33
2022-08-12T21:26:12.469Z,22.35
2022-08-12T21:28:58.206Z,22.32
2022-08-12T21:32:47.061Z,22.35
2022-08-12T21:34:27.694Z,22.39
2022-08-12T21:37:01.757Z,22.30
2022-08-12T21:39:51.995Z,22.27
2022-08-12T21:42:27.724Z,22.13
2022-08-12T21:45:44.559Z,21.95
2022-08-12T21:47:53.381Z,21.97
2022-08-12T21:50:21.931Z,22.05
2022-08-12T21:52:59.323Z,22.17
2022-08-12T21:55:39.990Z,22.14
2022-08-12T21:58:22.626Z,21.96
2022-08-12T22:00:53.004Z,21.98
2022-08-12T22:04:02.881Z,21.89
2022-08-12T22:06:42.726Z,21.74
2022-08-12T22:09:16.316Z,21.70
2022-08-12T22:11:56.253Z,21.72
2022-08-12T22:14:28.152Z,21.66
2022-08-12T22:16:58.315Z,21.53
2022-08-12T22:19:27.501Z,21.60
2022-08-12T22:21:58.698Z,21.55
2022-08-12T22:24:29.872Z,21.60
2022-08-12T22:27:18.482Z,21.50
2022-08-12T22:30:08.432Z,21.51
2022-08-12T22:32:47.531Z,21.37
2022-08-12T22:35:56.000Z,21.35
2022-08-12T22:38:26.732Z,21.47
2022-08-12T22:41:01.280Z,21.54
2022-08-12T22:44:00.766Z,21.50
2022-08-12T22:46:52.696Z,21.39
2022-08-12T22:49:36.588Z,21.38
2022-08-12T22:52:13.773Z,21.38
2022-08-12T22:54:46.449Z,21.26
2022-08-12T22:57:49.162Z,21.33
2022-08-12T23:00:27.765Z,21.15
2022-08-12T23:03:02.896Z,21.18
2022-08-12T23:05:57.370Z,21.13
2022-08-12T23:08:23.960Z,21.13
2022-08-12T23:10:59.395Z,21.20
2022-08-12T23:13:45.551Z,21.29
2022-08-12T23:16:27.833Z,21.40
2022-08-12T23:19:01.739Z,21.38
2022-08-12T23:21:40.395Z,21.40
2022-08-12T23:24:28.280Z,21.27
2022-08-12T23:27:14.860Z,21.13
2022-08-12T23:30:17.534Z,21.10
2022-08-12T23:32:36.060Z,20.88
2022-08-12T23:35:08.399Z,20.79
2022-08-12T23:37:47.340Z,20.83
2022-08-12T23:40:24.702Z,20.82
2022-08-12T23:42:55.613Z,20.84
2022-08-12T23:45:31.315Z,20.73
2022-08-12T23:48:04.025Z,20.75
2022-08-12T23:50:35.205Z,20.76
2022-08-12T23:53:06.421Z,20.74
2022-08-12T23:55:46.061Z,20.73
2022-08-12T23:58:21.133Z,20.58
